Time;durP1;ratioP1;P1;durP2;ratioP2;P2;SDS_P1;SDS_P2;PMS_P1;PMS_P2;Temp;Humidity;BMP_temperature;BMP_pressure;BME280_temperature;BME280_humidity;BME280_pressure;Samples;Min_cycle;Max_cycle;Signal;HPM_P1;HPM_P2
2023/01/08 00:00:05;;;;;;;6.40;4.33;;;;;;;19.37;54.31;97065.13;5044125;28;20184;-90
2023/01/08 00:02:31;;;;;;;6.63;4.17;;;;;;;19.11;54.23;97009.94;5045089;28;20224;-91
2023/01/08 00:04:58;;;;;;;5.50;4.40;;;;;;;19.25;53.92;97039.25;5077342;28;20205;-91
2023/01/08 00:07:25;;;;;;;6.17;4.60;;;;;;;19.08;54.11;97004.75;5052599;28;20336;-91
2023/01/08 00:09:53;;;;;;;7.93;5.10;;;;;;;19.31;54.11;97055.63;5046636;28;20212;-90
2023/01/08 00:12:20;;;;;;;5.40;4.43;;;;;;;19.14;54.27;97000.69;5051490;28;20185;-91
2023/01/08 00:14:46;;;;;;;6.20;4.57;;;;;;;19.41;54.27;97051.66;5077848;28;20221;-92
2023/01/08 00:17:13;;;;;;;7.10;4.37;;;;;;;19.13;54.20;96995.56;5044802;28;20251;-92
2023/01/08 00:19:40;;;;;;;5.20;4.30;;;;;;;17.82;54.05;96777.66;5068501;28;20216;-92
2023/01/08 00:22:07;;;;;;;5.43;4.17;;;;;;;18.33;54.12;96849.66;5060111;28;20244;-91
2023/01/08 00:24:34;;;;;;;4.50;4.00;;;;;;;19.28;54.14;97030.06;5077054;28;20227;-91
2023/01/08 00:27:00;;;;;;;5.20;4.17;;;;;;;19.13;54.30;96975.19;5031660;28;20181;-91
2023/01/08 00:29:27;;;;;;;4.57;4.17;;;;;;;19.26;53.89;97010.38;5060079;28;20227;-92
2023/01/08 00:31:53;;;;;;;4.83;4.20;;;;;;;18.38;54.09;96856.63;5060163;28;20208;-91
2023/01/08 00:34:20;;;;;;;5.33;3.97;;;;;;;18.36;54.17;96844.66;5053617;28;20201;-91
2023/01/08 00:36:47;;;;;;;5.47;4.13;;;;;;;17.85;53.97;96765.94;5056164;28;20178;-92
2023/01/08 00:39:13;;;;;;;5.57;4.43;;;;;;;18.80;54.16;96928.34;5031043;28;20201;-92
2023/01/08 00:41:43;;;;;;;5.93;4.10;;;;;;;19.19;54.01;96981.31;5046641;28;20292;-92
2023/01/08 00:44:09;;;;;;;6.87;4.17;;;;;;;19.31;54.14;97007.22;5061207;28;20209;-91
2023/01/08 00:46:36;;;;;;;4.67;4.17;;;;;;;18.34;54.03;96824.25;5032701;28;20174;-92
2023/01/08 00:49:02;;;;;;;5.43;4.53;;;;;;;19.36;54.15;97015.84;5067158;28;20191;-91
2023/01/08 00:51:29;;;;;;;5.07;4.53;;;;;;;18.67;53.91;96896.56;5042745;28;20197;-91
2023/01/08 00:53:56;;;;;;;5.23;4.27;;;;;;;19.56;54.03;97040.22;5043637;28;20204;-91
2023/01/08 00:56:22;;;;;;;6.43;4.10;;;;;;;18.86;53.86;96931.06;5035273;28;20208;-91
2023/01/08 00:58:49;;;;;;;7.60;4.47;;;;;;;18.50;54.01;96856.16;5067873;28;20232;-91
2023/01/08 01:01:15;;;;;;;4.87;4.37;;;;;;;18.71;54.02;96883.09;5023084;28;20204;-92
2023/01/08 01:03:42;;;;;;;5.10;4.20;;;;;;;18.89;54.03;96904.00;5050359;28;20196;-92
2023/01/08 01:06:09;;;;;;;5.63;4.40;;;;;;;19.07;53.92;96947.00;5076364;28;20220;-92
2023/01/08 01:08:36;;;;;;;5.23;4.10;;;;;;;19.34;53.92;96979.28;5035525;28;20193;-92
2023/01/08 01:11:11;;;;;;;4.70;4.00;;;;;;;18.45;53.98;96840.75;5072867;28;20181;-90
2023/01/08 01:13:38;;;;;;;4.23;3.83;;;;;;;18.62;54.19;96859.91;5060389;28;20246;-92
2023/01/08 01:16:05;;;;;;;5.07;4.00;;;;;;;18.87;54.09;96909.88;5075639;28;20212;-90
2023/01/08 01:18:31;;;;;;;5.97;4.20;;;;;;;19.13;54.23;96942.91;5047148;28;20209;-91
2023/01/08 01:20:58;;;;;;;6.33;4.23;;;;;;;18.85;53.97;96909.84;5051223;28;20173;-92
2023/01/08 01:23:25;;;;;;;4.63;4.10;;;;;;;19.23;54.19;96972.09;5076341;28;20196;-91
2023/01/08 01:25:53;;;;;;;5.37;4.07;;;;;;;18.46;54.20;96842.47;5026678;28;20195;-92
2023/01/08 01:28:19;;;;;;;4.37;3.97;;;;;;;18.67;54.31;96871.09;5035853;28;20192;-91
2023/01/08 01:30:52;;;;;;;4.33;3.70;;;;;;;18.97;54.14;96920.38;5051588;28;20177;-92
2023/01/08 01:33:19;;;;;;;4.57;4.03;;;;;;;18.77;54.18;96884.97;5042211;28;20270;-92
2023/01/08 01:35:45;;;;;;;4.77;3.63;;;;;;;19.22;54.11;96958.47;5040968;28;20190;-92
2023/01/08 01:38:12;;;;;;;4.97;3.90;;;;;;;19.23;54.02;96959.34;5041608;28;20229;-90
2023/01/08 01:40:42;;;;;;;5.03;4.00;;;;;;;18.95;54.09;96927.09;5076217;28;20201;-92
2023/01/08 01:43:12;;;;;;;4.20;3.80;;;;;;;19.28;53.98;96973.13;5026370;28;20211;-90
2023/01/08 01:45:38;;;;;;;4.13;3.67;;;;;;;18.19;53.98;96776.34;5043342;28;20208;-93
2023/01/08 01:48:10;;;;;;;6.33;3.77;;;;;;;18.83;54.03;96880.06;5044205;28;20188;-90
2023/01/08 01:50:41;;;;;;;4.50;3.90;;;;;;;19.06;54.12;96914.69;5050330;28;20185;-91
2023/01/08 01:53:17;;;;;;;4.57;4.07;;;;;;;18.85;54.08;96886.03;5072899;28;20200;-89
2023/01/08 01:55:43;;;;;;;5.87;4.37;;;;;;;19.13;54.05;96932.72;5061919;28;20181;-89
2023/01/08 01:58:15;;;;;;;5.43;4.03;;;;;;;19.13;54.13;96934.44;5048486;28;20204;-90
2023/01/08 02:00:42;;;;;;;3.90;3.53;;;;;;;19.51;54.02;96992.50;5056797;28;20197;-90
2023/01/08 02:03:09;;;;;;;4.63;4.03;;;;;;;19.33;54.01;96974.13;5053522;28;20276;-87
2023/01/08 02:06:02;;;;;;;4.03;3.50;;;;;;;18.74;53.98;96861.97;5036953;28;20189;-88
2023/01/08 02:08:50;;;;;;;4.33;3.93;;;;;;;19.34;54.09;96968.22;5048857;28;20730;-89
2023/01/08 02:12:15;;;;;;;5.10;4.27;;;;;;;19.62;53.98;97006.41;5035590;28;20202;-88
2023/01/08 02:14:52;;;;;;;5.07;3.60;;;;;;;19.61;53.84;97007.22;5077571;28;20229;-90
2023/01/08 02:17:51;;;;;;;3.77;3.30;;;;;;;17.49;53.85;96645.38;5055769;28;20223;-90
2023/01/08 02:20:20;;;;;;;4.17;3.73;;;;;;;19.18;53.96;96936.28;5054163;28;20260;-89
2023/01/08 02:23:22;;;;;;;3.67;3.30;;;;;;;18.75;53.84;96869.66;5059340;28;20187;-86
2023/01/08 02:26:33;;;;;;;4.27;3.60;;;;;;;19.59;53.77;96997.00;5018330;28;20192;-90
2023/01/08 02:29:05;;;;;;;3.87;3.47;;;;;;;19.18;54.05;96925.22;5074856;28;20215;-90
2023/01/08 02:31:32;;;;;;;4.20;3.47;;;;;;;18.96;53.85;96893.19;5016962;28;20204;-90
2023/01/08 02:33:59;;;;;;;4.97;3.87;;;;;;;18.13;54.10;96737.16;5045333;28;20236;-89
2023/01/08 02:36:38;;;;;;;3.80;3.50;;;;;;;19.58;53.92;96986.75;5061022;28;20200;-90
2023/01/08 02:39:07;;;;;;;3.60;3.30;;;;;;;19.58;54.04;96999.50;5077746;28;20268;-90
2023/01/08 02:41:38;;;;;;;3.67;3.30;;;;;;;19.44;53.96;96972.75;5051094;28;20177;-89
2023/01/08 02:44:05;;;;;;;4.47;4.07;;;;;;;19.58;54.06;96989.31;5058883;28;20209;-90
2023/01/08 02:46:31;;;;;;;4.10;3.70;;;;;;;19.41;53.88;96952.28;5048913;28;20256;-88
2023/01/08 02:49:06;;;;;;;4.40;3.67;;;;;;;19.24;54.00;96921.19;5060677;28;20238;-88
2023/01/08 02:51:35;;;;;;;4.10;3.70;;;;;;;19.38;53.96;96929.25;5057518;28;20185;-90
2023/01/08 02:54:04;;;;;;;4.03;3.57;;;;;;;18.81;53.93;96828.25;5077091;28;20201;-88
2023/01/08 02:56:33;;;;;;;3.40;3.10;;;;;;;19.09;53.88;96871.47;5023546;28;20196;-90
2023/01/08 02:58:59;;;;;;;3.53;3.23;;;;;;;18.61;53.92;96796.25;5051242;28;20221;-89
2023/01/08 03:01:26;;;;;;;4.27;3.77;;;;;;;18.65;53.94;96798.09;5040836;28;20201;-88
2023/01/08 03:03:55;;;;;;;5.13;3.90;;;;;;;19.53;54.07;96953.50;5029589;28;20205;-86
2023/01/08 03:06:22;;;;;;;4.63;3.80;;;;;;;19.24;53.86;96910.13;5068762;28;20209;-89
2023/01/08 03:08:50;;;;;;;3.43;3.13;;;;;;;18.86;53.85;96834.34;5027582;28;20188;-88
2023/01/08 03:11:18;;;;;;;3.97;3.50;;;;;;;19.14;54.10;96875.03;5049279;28;20209;-89
2023/01/08 03:13:53;;;;;;;3.60;3.30;;;;;;;19.20;53.96;96885.38;5031562;28;20273;-90
2023/01/08 03:16:27;;;;;;;4.13;3.73;;;;;;;19.58;53.90;96935.78;5034536;28;20193;-89
2023/01/08 03:18:58;;;;;;;3.40;3.10;;;;;;;19.25;54.13;96881.31;5077401;28;20265;-89
2023/01/08 03:21:25;;;;;;;4.90;3.57;;;;;;;18.72;53.84;96805.94;5048319;28;20216;-90
2023/01/08 03:23:51;;;;;;;3.83;3.30;;;;;;;18.94;53.97;96832.84;5034843;28;20209;-91
2023/01/08 03:26:23;;;;;;;3.73;3.33;;;;;;;19.57;53.87;96937.44;5061135;28;20181;-86
2023/01/08 03:28:51;;;;;;;4.00;3.23;;;;;;;19.05;54.02;96852.72;5030255;28;20193;-90
2023/01/08 03:31:18;;;;;;;3.60;3.30;;;;;;;19.10;53.86;96860.50;5033327;28;20229;-89
2023/01/08 03:33:45;;;;;;;3.97;3.20;;;;;;;19.51;53.78;96941.53;5032039;28;20198;-86
2023/01/08 03:36:15;;;;;;;3.80;3.30;;;;;;;19.25;53.77;96900.00;5061266;28;20247;-88
2023/01/08 03:38:44;;;;;;;4.33;3.50;;;;;;;19.35;53.82;96921.53;5043774;28;20224;-90
2023/01/08 03:41:12;;;;;;;3.60;3.30;;;;;;;18.76;53.60;96817.06;5049216;28;20181;-90
2023/01/08 03:43:39;;;;;;;3.90;3.50;;;;;;;18.53;53.64;96755.31;5040395;28;20219;-90
2023/01/08 03:46:12;;;;;;;3.67;3.37;;;;;;;19.09;53.45;96857.06;5058902;28;20260;-90
2023/01/08 03:48:39;;;;;;;3.90;3.50;;;;;;;19.53;53.65;96929.69;5054811;28;20189;-89
2023/01/08 03:51:09;;;;;;;3.37;3.07;;;;;;;19.03;53.69;96850.94;5041261;28;20247;-86
2023/01/08 03:53:35;;;;;;;4.10;3.70;;;;;;;19.13;53.53;96870.75;5046904;28;20230;-89
2023/01/08 03:56:08;;;;;;;3.80;3.50;;;;;;;19.27;53.55;96874.59;5042388;28;20219;-89
2023/01/08 03:58:35;;;;;;;3.93;3.57;;;;;;;19.13;53.75;96847.84;5074315;28;20258;-89
2023/01/08 04:01:01;;;;;;;4.30;3.70;;;;;;;19.31;53.72;96867.09;5059429;28;20207;-89
2023/01/08 04:03:28;;;;;;;3.60;3.30;;;;;;;19.38;53.65;96876.63;5059363;28;20221;-89
2023/01/08 04:05:54;;;;;;;3.90;3.60;;;;;;;18.58;53.68;96735.09;5075804;28;20219;-90
2023/01/08 04:08:21;;;;;;;4.23;3.50;;;;;;;19.02;53.60;96799.16;5027757;28;20181;-89
2023/01/08 04:10:48;;;;;;;3.33;3.03;;;;;;;19.34;53.56;96846.78;5066585;28;20189;-90
2023/01/08 04:13:14;;;;;;;3.77;3.43;;;;;;;19.38;53.61;96852.81;5049928;28;20228;-89
2023/01/08 04:15:46;;;;;;;3.80;3.30;;;;;;;18.97;53.56;96772.69;5065565;28;20245;-91
2023/01/08 04:18:13;;;;;;;3.90;3.50;;;;;;;19.12;53.43;96790.94;5076088;28;20225;-89
2023/01/08 04:20:41;;;;;;;3.97;3.57;;;;;;;18.36;53.60;96664.06;5046320;28;20192;-91
2023/01/08 04:23:08;;;;;;;3.43;3.13;;;;;;;18.44;53.73;96680.44;5058698;28;20201;-89
2023/01/08 04:25:37;;;;;;;3.90;3.50;;;;;;;18.64;53.45;96715.78;5048869;28;20181;-89
2023/01/08 04:28:03;;;;;;;3.90;3.27;;;;;;;18.29;53.73;96649.47;5046975;28;20233;-90
2023/01/08 04:30:30;;;;;;;3.40;3.10;;;;;;;18.49;53.69;96681.41;5041707;28;20193;-89
2023/01/08 04:32:56;;;;;;;3.53;2.87;;;;;;;19.19;53.62;96794.53;5058477;28;20241;-88
2023/01/08 04:35:23;;;;;;;3.57;3.00;;;;;;;19.47;53.77;96853.94;5046853;28;20598;-90
2023/01/08 04:37:50;;;;;;;3.70;3.40;;;;;;;18.36;53.83;96667.47;5071484;28;20215;-90
2023/01/08 04:40:16;;;;;;;3.50;3.17;;;;;;;19.09;53.96;96788.31;5041106;28;20241;-87
2023/01/08 04:42:43;;;;;;;3.77;3.40;;;;;;;19.47;53.67;96846.28;5059487;28;20224;-89
2023/01/08 04:45:10;;;;;;;3.23;2.93;;;;;;;19.34;53.78;96820.44;5050829;28;20178;-90
2023/01/08 04:47:36;;;;;;;3.50;3.10;;;;;;;19.40;53.78;96830.78;5055351;28;20220;-90
2023/01/08 04:50:03;;;;;;;3.67;3.17;;;;;;;18.75;53.60;96726.25;5045385;28;20189;-89
2023/01/08 04:52:29;;;;;;;3.90;3.10;;;;;;;19.51;53.40;96860.00;5074166;28;20221;-90
2023/01/08 04:54:56;;;;;;;3.40;3.10;;;;;;;19.28;53.77;96821.16;5044517;28;20249;-89
2023/01/08 04:57:23;;;;;;;3.50;3.20;;;;;;;19.38;53.62;96824.78;5047597;28;20220;-87
2023/01/08 04:59:49;;;;;;;3.60;3.30;;;;;;;19.34;53.60;96818.78;5043402;28;20269;-90
2023/01/08 05:02:16;;;;;;;3.30;3.00;;;;;;;19.24;53.83;96803.13;5075330;28;20196;-88
2023/01/08 05:04:43;;;;;;;3.70;3.30;;;;;;;18.79;53.78;96722.97;5050443;28;20204;-90
2023/01/08 05:07:09;;;;;;;3.77;3.17;;;;;;;19.28;53.73;96795.69;5049402;28;20209;-90
2023/01/08 05:09:36;;;;;;;3.17;2.83;;;;;;;19.38;53.46;96812.91;5075212;28;20216;-91
2023/01/08 05:12:03;;;;;;;3.73;3.10;;;;;;;19.16;53.42;96785.09;5064255;28;20200;-90
2023/01/08 05:14:29;;;;;;;3.97;3.10;;;;;;;18.40;53.68;96654.03;5043594;28;20201;-90
2023/01/08 05:16:56;;;;;;;3.30;3.00;;;;;;;19.54;53.30;96858.34;5020899;28;20204;-87
2023/01/08 05:19:22;;;;;;;4.17;3.77;;;;;;;18.49;53.20;96679.72;5030900;28;20228;-89
2023/01/08 05:21:49;;;;;;;3.50;3.20;;;;;;;19.43;53.23;96834.31;5023148;28;20250;-91
2023/01/08 05:24:18;;;;;;;3.33;3.00;;;;;;;19.62;52.75;96861.09;5073465;28;20216;-86
2023/01/08 05:26:44;;;;;;;3.63;3.33;;;;;;;19.03;52.51;96774.53;5023713;28;20205;-90
2023/01/08 05:29:11;;;;;;;4.30;2.90;;;;;;;18.44;52.64;96652.47;5027582;28;20208;-90
2023/01/08 05:31:37;;;;;;;4.80;3.40;;;;;;;18.76;53.03;96694.88;5073734;28;20188;-93
2023/01/08 05:34:04;;;;;;;5.97;3.10;;;;;;;17.73;52.97;96523.28;5041136;28;20201;-92
2023/01/08 05:36:31;;;;;;;7.07;3.20;;;;;;;19.52;53.10;96834.53;5070504;28;20201;-93
2023/01/08 05:39:00;;;;;;;7.63;3.90;;;;;;;18.82;53.08;96700.13;5042137;28;20216;-89
2023/01/08 05:41:27;;;;;;;5.17;3.50;;;;;;;19.16;52.98;96776.63;5055531;28;20232;-93
2023/01/08 05:43:54;;;;;;;4.60;3.10;;;;;;;17.45;53.18;96465.78;5022472;28;20204;-91
2023/01/08 05:46:20;;;;;;;4.70;3.10;;;;;;;16.86;53.21;96381.94;5041783;28;20181;-92
2023/01/08 05:48:47;;;;;;;12.13;3.97;;;;;;;19.19;53.18;96812.34;5046812;28;20192;-87
2023/01/08 05:51:13;;;;;;;4.73;3.60;;;;;;;19.20;53.03;96774.19;5036462;28;20216;-91
2023/01/08 05:53:40;;;;;;;5.97;3.30;;;;;;;17.64;53.13;96551.84;5018815;28;20271;-93
2023/01/08 05:56:07;;;;;;;4.33;3.10;;;;;;;18.83;53.07;96717.16;5049114;28;20213;-93
2023/01/08 05:58:35;;;;;;;7.57;3.67;;;;;;;19.19;52.84;96775.00;5019153;28;20209;-91
2023/01/08 06:01:03;;;;;;;3.30;2.90;;;;;;;19.28;53.01;96792.25;5032768;28;20212;-91
2023/01/08 06:03:32;;;;;;;8.00;3.80;;;;;;;18.93;52.87;96724.22;5016695;28;20197;-93
2023/01/08 06:06:00;;;;;;;5.40;3.57;;;;;;;18.94;53.08;96724.25;5066034;28;20209;-93
2023/01/08 06:08:27;;;;;;;6.97;3.20;;;;;;;18.47;53.05;96675.44;5034438;28;20481;-93
2023/01/08 06:10:57;;;;;;;12.67;3.50;;;;;;;18.53;53.25;96673.91;5034435;28;20231;-93
2023/01/08 06:13:23;;;;;;;6.10;3.33;;;;;;;18.48;53.41;96665.31;5030686;28;20320;-91
2023/01/08 06:15:50;;;;;;;4.77;2.93;;;;;;;19.15;53.36;96780.84;5043705;28;20200;-93
2023/01/08 06:18:17;;;;;;;4.33;3.00;;;;;;;18.61;53.18;96695.34;5057660;28;20219;-91
2023/01/08 06:20:43;;;;;;;5.23;3.43;;;;;;;18.82;53.35;96723.03;5058709;28;20181;-94
2023/01/08 06:23:10;;;;;;;3.50;2.77;;;;;;;19.21;53.18;96790.31;5039046;28;20261;-92
2023/01/08 06:25:37;;;;;;;7.37;3.40;;;;;;;18.73;53.43;96700.75;5057810;28;20176;-91
2023/01/08 06:28:04;;;;;;;4.00;3.43;;;;;;;19.22;53.02;96781.88;5074602;28;20185;-91
2023/01/08 06:30:30;;;;;;;3.57;3.00;;;;;;;19.67;52.99;96864.66;5053629;28;20248;-89
2023/01/08 06:32:57;;;;;;;8.17;3.43;;;;;;;19.18;52.92;96778.38;5040775;28;20224;-91
2023/01/08 06:35:24;;;;;;;5.87;3.30;;;;;;;18.05;52.76;96566.59;5040413;28;20185;-89
2023/01/08 06:37:51;;;;;;;7.30;3.53;;;;;;;19.50;52.61;96809.81;5040754;28;20177;-92
2023/01/08 06:40:17;;;;;;;3.93;2.90;;;;;;;18.42;52.93;96636.28;5068546;28;20240;-88
2023/01/08 06:42:45;;;;;;;3.83;3.37;;;;;;;19.66;53.23;96838.28;5060756;28;20201;-92
2023/01/08 06:45:11;;;;;;;3.30;2.83;;;;;;;18.65;53.03;96665.75;5052919;28;20396;-93
2023/01/08 06:47:38;;;;;;;4.80;3.00;;;;;;;19.26;53.23;96782.00;5057136;28;20197;-92
2023/01/08 06:50:05;;;;;;;3.93;3.30;;;;;;;18.46;53.11;96643.16;5051157;28;20198;-92
2023/01/08 06:52:32;;;;;;;5.43;3.20;;;;;;;18.46;53.33;96635.53;5053408;28;20188;-92
2023/01/08 06:54:58;;;;;;;3.40;3.10;;;;;;;18.52;53.25;96638.25;5052737;28;20209;-92
2023/01/08 06:57:25;;;;;;;4.20;3.10;;;;;;;18.95;53.18;96712.38;5053445;28;20213;-93
2023/01/08 06:59:52;;;;;;;3.83;3.33;;;;;;;18.92;53.10;96700.41;5034604;28;20229;-89
2023/01/08 07:02:18;;;;;;;4.13;3.07;;;;;;;19.31;53.14;96782.16;5046095;28;20197;-87
2023/01/08 07:04:45;;;;;;;3.70;2.97;;;;;;;18.94;52.98;96731.88;5018936;28;20212;-89
2023/01/08 07:07:15;;;;;;;5.13;3.10;;;;;;;19.56;52.78;96825.25;5028276;28;20227;-87
2023/01/08 07:09:41;;;;;;;5.30;3.13;;;;;;;19.50;52.96;96814.91;5030173;28;20693;-89
2023/01/08 07:12:14;;;;;;;4.53;3.03;;;;;;;19.18;52.94;96758.00;5018603;28;20264;-92
2023/01/08 07:14:40;;;;;;;3.70;2.90;;;;;;;18.97;52.79;96734.50;5019769;28;20227;-89
2023/01/08 07:17:10;;;;;;;4.50;3.50;;;;;;;19.10;52.82;96754.38;5028621;28;20224;-90
2023/01/08 07:19:37;;;;;;;4.83;3.47;;;;;;;18.21;52.71;96608.56;5035408;28;20216;-90
2023/01/08 07:22:04;;;;;;;3.93;3.30;;;;;;;19.55;52.77;96852.47;5034347;28;20227;-88
2023/01/08 07:24:30;;;;;;;3.97;3.20;;;;;;;19.46;52.87;96831.84;5046482;28;20284;-88
2023/01/08 07:26:57;;;;;;;4.00;3.13;;;;;;;19.14;52.82;96779.13;5025231;28;20201;-89
2023/01/08 07:29:23;;;;;;;5.83;3.13;;;;;;;19.39;53.02;96817.19;5033599;28;20213;-91
2023/01/08 07:31:50;;;;;;;3.53;3.00;;;;;;;19.22;52.72;96786.97;5034499;28;20216;-89
2023/01/08 07:34:17;;;;;;;4.03;3.27;;;;;;;19.36;52.80;96808.63;5031019;28;20217;-91
2023/01/08 07:36:45;;;;;;;7.70;3.50;;;;;;;18.94;52.95;96742.06;5021859;28;20283;-91
2023/01/08 07:39:12;;;;;;;4.13;3.07;;;;;;;19.49;52.72;96831.03;5018406;28;20296;-90
2023/01/08 07:41:38;;;;;;;3.30;3.00;;;;;;;19.58;53.16;96852.53;5034900;28;20224;-91
2023/01/08 07:44:05;;;;;;;3.37;3.07;;;;;;;18.99;52.66;96737.97;5017011;28;20197;-89
2023/01/08 07:46:31;;;;;;;4.43;3.27;;;;;;;18.99;52.81;96737.09;5039871;28;20197;-90
2023/01/08 07:48:58;;;;;;;3.17;2.87;;;;;;;18.96;53.02;96735.34;5017430;28;20277;-90
2023/01/08 07:51:25;;;;;;;3.37;3.07;;;;;;;19.10;52.98;96762.00;5020382;28;20185;-90
2023/01/08 07:53:51;;;;;;;2.93;2.70;;;;;;;17.74;53.08;96530.94;5036591;28;20204;-90
2023/01/08 07:56:18;;;;;;;4.00;3.60;;;;;;;19.05;52.85;96753.41;5060249;28;20208;-89
2023/01/08 07:58:45;;;;;;;3.80;3.10;;;;;;;19.33;53.05;96799.19;5062983;28;20217;-90
2023/01/08 08:01:13;;;;;;;3.20;2.90;;;;;;;18.78;52.93;96696.66;5051908;28;20192;-88
2023/01/08 08:03:40;;;;;;;4.83;3.10;;;;;;;19.30;52.83;96796.56;5034515;28;20252;-92
2023/01/08 08:06:07;;;;;;;3.57;2.97;;;;;;;19.25;52.62;96793.03;5021102;28;20220;-90
2023/01/08 08:08:33;;;;;;;3.73;3.10;;;;;;;19.20;52.76;96788.59;5018222;28;20197;-92
2023/01/08 08:11:00;;;;;;;4.80;3.07;;;;;;;19.23;52.86;96788.69;5019370;28;20347;-92
2023/01/08 08:13:27;;;;;;;6.57;3.10;;;;;;;19.37;52.86;96820.53;5038379;28;20236;-92
2023/01/08 08:15:53;;;;;;;3.53;2.90;;;;;;;19.43;52.41;96829.22;5035633;28;20209;-90
2023/01/08 08:18:20;;;;;;;4.17;2.97;;;;;;;19.16;52.81;96789.34;5067443;28;20205;-90
2023/01/08 08:20:50;;;;;;;4.30;3.40;;;;;;;19.07;53.15;96768.72;5017705;28;20466;-90
2023/01/08 08:23:17;;;;;;;4.17;3.10;;;;;;;19.62;52.90;96861.97;5024333;28;20315;-93
2023/01/08 08:25:43;;;;;;;4.87;3.00;;;;;;;19.25;52.78;96785.38;5018081;28;20719;-91
2023/01/08 08:28:11;;;;;;;4.07;3.03;;;;;;;18.40;53.04;96663.34;5007582;28;20297;-89
2023/01/08 08:30:37;;;;;;;4.20;3.03;;;;;;;19.33;52.95;96809.38;5027188;28;20228;-91
2023/01/08 08:33:08;;;;;;;3.90;3.20;;;;;;;19.43;53.02;96829.22;5048195;28;20224;-91
2023/01/08 08:35:35;;;;;;;5.33;4.00;;;;;;;19.17;51.07;96791.94;5018769;28;20213;-92
2023/01/08 08:38:01;;;;;;;6.10;5.57;;;;;;;19.21;45.47;96788.66;5041143;28;20204;-90
2023/01/08 08:40:28;;;;;;;6.63;5.60;;;;;;;19.03;42.56;96766.91;5050772;28;20228;-91
2023/01/08 08:42:56;;;;;;;6.43;5.83;;;;;;;18.80;41.79;96720.47;5016220;28;20189;-92
2023/01/08 08:45:23;;;;;;;5.90;5.30;;;;;;;19.26;42.18;96810.00;5018959;28;20210;-91
2023/01/08 08:47:49;;;;;;;6.00;5.50;;;;;;;19.37;43.12;96830.72;5020681;28;20212;-92
2023/01/08 08:50:16;;;;;;;6.30;5.70;;;;;;;18.90;44.46;96763.19;5040052;28;20204;-90
2023/01/08 08:52:44;;;;;;;6.00;5.40;;;;;;;18.69;45.07;96705.72;5006657;28;20221;-89
2023/01/08 08:55:17;;;;;;;5.47;4.97;;;;;;;18.62;45.62;96702.16;5019629;28;20240;-91
2023/01/08 08:57:44;;;;;;;5.87;5.20;;;;;;;18.81;46.27;96723.88;5020203;28;20201;-91
2023/01/08 09:00:11;;;;;;;5.43;4.93;;;;;;;19.03;46.71;96779.63;5054686;28;20216;-91
2023/01/08 09:02:38;;;;;;;6.77;5.33;;;;;;;18.65;47.04;96709.84;5044993;28;20205;-91
2023/01/08 09:05:05;;;;;;;5.60;5.10;;;;;;;18.98;47.10;96768.50;5030162;28;20217;-90
2023/01/08 09:07:32;;;;;;;12.17;5.00;;;;;;;18.07;47.65;96608.16;5039550;28;20269;-91
2023/01/08 09:09:59;;;;;;;5.13;4.63;;;;;;;18.78;48.02;96731.44;5060167;28;20244;-93
2023/01/08 09:12:25;;;;;;;6.73;5.00;;;;;;;18.96;48.36;96767.56;5035923;28;20289;-89
2023/01/08 09:14:53;;;;;;;7.83;4.73;;;;;;;19.18;48.55;96806.38;4995843;28;20224;-90
2023/01/08 09:17:20;;;;;;;5.67;4.73;;;;;;;19.37;48.83;96839.22;5007398;28;20211;-90
2023/01/08 09:19:46;;;;;;;5.07;4.10;;;;;;;19.20;49.05;96808.97;5005395;28;20698;-89
2023/01/08 09:22:13;;;;;;;4.47;3.77;;;;;;;18.40;49.47;96678.59;5007566;28;20212;-92
2023/01/08 09:24:40;;;;;;;4.30;3.50;;;;;;;18.95;49.81;96779.44;5042512;28;20285;-91
2023/01/08 09:27:06;;;;;;;5.17;3.33;;;;;;;19.12;49.95;96808.78;5025552;28;20660;-90
2023/01/08 09:29:36;;;;;;;3.70;3.40;;;;;;;18.81;50.51;96755.28;5020548;28;20203;-89
2023/01/08 09:32:06;;;;;;;4.03;3.40;;;;;;;19.08;50.00;96801.88;5025219;28;20198;-89
2023/01/08 09:34:34;;;;;;;5.23;3.30;;;;;;;19.42;50.21;96849.56;5003240;28;20346;-90
2023/01/08 09:37:02;;;;;;;4.03;3.13;;;;;;;19.29;50.17;96838.16;5022794;28;20192;-89
2023/01/08 09:39:29;;;;;;;5.37;3.37;;;;;;;19.02;50.15;96781.34;5039073;28;20783;-89
2023/01/08 09:41:55;;;;;;;3.30;3.00;;;;;;;19.19;50.27;96810.66;5018971;28;20229;-89
2023/01/08 09:44:25;;;;;;;5.30;3.50;;;;;;;18.94;50.33;96761.56;5034363;28;20224;-89
2023/01/08 09:46:53;;;;;;;3.57;3.27;;;;;;;19.20;50.52;96796.25;5006481;28;20209;-89
2023/01/08 09:49:37;;;;;;;3.70;3.20;;;;;;;19.22;50.72;96781.88;5002909;28;20205;-89
2023/01/08 09:52:04;;;;;;;4.20;2.80;;;;;;;19.51;50.76;96835.34;5015097;28;20201;-90
2023/01/08 09:54:30;;;;;;;5.00;2.90;;;;;;;19.19;51.09;96779.25;5045294;28;20740;-89
2023/01/08 09:56:58;;;;;;;4.57;3.10;;;;;;;18.73;50.85;96698.22;5001865;28;20197;-89
2023/01/08 09:59:24;;;;;;;3.53;2.47;;;;;;;18.96;50.56;96742.09;5003598;28;20221;-90
2023/01/08 10:01:51;;;;;;;4.60;2.73;;;;;;;19.09;50.62;96769.63;5000942;28;20254;-89
2023/01/08 10:04:22;;;;;;;5.97;3.00;;;;;;;19.53;50.69;96831.16;5033474;28;20316;-92
2023/01/08 10:06:57;;;;;;;4.63;3.07;;;;;;;18.89;50.73;96723.25;5001867;28;20233;-89
2023/01/08 10:09:28;;;;;;;3.43;2.70;;;;;;;19.55;50.30;96836.28;5020831;28;20196;-90
2023/01/08 10:11:58;;;;;;;4.23;2.67;;;;;;;18.76;50.81;96677.94;5003791;28;20224;-90
2023/01/08 10:14:30;;;;;;;3.00;2.70;;;;;;;19.07;50.90;96733.09;5017914;28;20235;-90
2023/01/08 10:17:21;;;;;;;2.83;2.60;;;;;;;19.55;50.68;96805.72;5004265;28;20656;-91
2023/01/08 10:19:48;;;;;;;4.43;2.90;;;;;;;19.06;50.99;96732.22;4989643;28;20271;-90
2023/01/08 10:22:16;;;;;;;3.97;2.80;;;;;;;19.02;50.98;96727.88;5001306;28;20200;-90
2023/01/08 10:24:43;;;;;;;3.60;2.70;;;;;;;18.93;51.00;96698.75;5018353;28;20225;-90
2023/01/08 10:27:17;;;;;;;6.33;2.50;;;;;;;19.52;51.15;96800.53;5017393;28;20211;-89
2023/01/08 10:29:43;;;;;;;6.93;2.63;;;;;;;18.87;51.18;96674.00;5017665;28;20248;-89
2023/01/08 10:32:28;;;;;;;4.17;2.70;;;;;;;19.16;51.18;96731.63;5004305;28;20296;-89
2023/01/08 10:34:55;;;;;;;2.67;2.43;;;;;;;19.01;51.05;96695.56;5008771;28;20252;-90
2023/01/08 10:37:25;;;;;;;3.93;2.70;;;;;;;19.51;51.33;96793.72;5010197;28;20204;-89
2023/01/08 10:39:54;;;;;;;2.93;2.50;;;;;;;19.25;51.29;96754.81;5027091;28;20244;-88
2023/01/08 10:42:21;;;;;;;3.53;2.50;;;;;;;19.26;51.38;96759.06;5009821;28;20207;-88
2023/01/08 10:44:54;;;;;;;3.50;2.67;;;;;;;18.73;51.24;96652.41;5007358;28;20235;-91
2023/01/08 10:47:20;;;;;;;2.90;2.60;;;;;;;18.98;51.33;96710.75;5022007;28;20212;-90
2023/01/08 10:49:47;;;;;;;2.77;2.50;;;;;;;19.15;50.93;96741.75;5022288;28;20204;-90
2023/01/08 10:52:30;;;;;;;2.60;2.40;;;;;;;19.11;51.18;96740.84;5014249;28;20240;-92
2023/01/08 10:55:09;;;;;;;2.63;2.43;;;;;;;19.14;51.30;96746.00;5021323;28;20252;-90
2023/01/08 10:57:36;;;;;;;2.93;2.63;;;;;;;19.35;51.21;96784.81;5007026;28;20684;-89
2023/01/08 11:00:03;;;;;;;3.27;2.50;;;;;;;18.79;51.36;96685.66;5022638;28;20224;-90
2023/01/08 11:02:36;;;;;;;3.50;2.70;;;;;;;19.16;51.39;96735.88;5014941;28;20638;-90
2023/01/08 11:05:06;;;;;;;2.60;2.40;;;;;;;18.97;51.29;96696.31;4997546;28;20217;-90
2023/01/08 11:07:35;;;;;;;3.50;2.63;;;;;;;19.08;51.41;96724.59;5032965;28;20755;-90
2023/01/08 11:10:03;;;;;;;2.90;2.70;;;;;;;19.02;51.55;96711.72;5021772;28;20213;-90
2023/01/08 11:12:30;;;;;;;2.80;2.43;;;;;;;19.53;51.26;96776.75;5013261;28;20223;-90
2023/01/08 11:14:56;;;;;;;6.47;2.87;;;;;;;19.15;51.36;96709.53;5034683;28;20233;-90
2023/01/08 11:17:23;;;;;;;2.73;2.53;;;;;;;18.99;51.53;96678.53;5036662;28;20246;-90
2023/01/08 11:19:50;;;;;;;2.83;2.40;;;;;;;19.32;51.48;96740.56;5035359;28;20241;-89
2023/01/08 11:22:21;;;;;;;3.37;2.73;;;;;;;19.05;51.52;96694.84;5018413;28;20207;-88
2023/01/08 11:24:48;;;;;;;2.73;2.23;;;;;;;19.27;51.45;96734.50;4998286;28;20942;-90
2023/01/08 11:27:26;;;;;;;3.07;2.20;;;;;;;19.31;51.51;96733.75;4997317;28;20217;-88
2023/01/08 11:30:06;;;;;;;5.20;2.63;;;;;;;19.00;51.61;96662.44;5022816;28;20204;-88
2023/01/08 11:32:45;;;;;;;4.57;2.70;;;;;;;18.78;51.54;96639.81;5018507;28;20207;-89
2023/01/08 11:35:14;;;;;;;5.63;2.53;;;;;;;19.53;51.87;96769.13;5017364;28;20318;-90
2023/01/08 11:37:57;;;;;;;2.90;2.53;;;;;;;18.96;51.82;96670.81;5032597;28;20208;-89
2023/01/08 11:40:29;;;;;;;2.70;2.07;;;;;;;19.53;51.71;96752.16;5040254;28;20217;-90